Time;durP1;ratioP1;P1;durP2;ratioP2;P2;SDS_P1;SDS_P2;PMS_P1;PMS_P2;Temp;Humidity;BMP_temperature;BMP_pressure;BME280_temperature;BME280_humidity;BME280_pressure;Samples;Min_cycle;Max_cycle;Signal;HPM_P1;HPM_P2
2022/02/19 00:00:11;;;;;;;19.13;2.78;;;6.70;99.90;;;7.10;61.73;99121.59;5046630;28;20028;-82
2022/02/19 00:02:37;;;;;;;12.38;2.00;;;6.60;99.90;;;7.01;64.16;99136.88;5062130;28;20029;-80
2022/02/19 00:05:05;;;;;;;11.43;2.70;;;6.50;99.90;;;6.77;65.94;99166.63;5041449;28;20029;-79
2022/02/19 00:07:31;;;;;;;8.50;1.83;;;6.40;99.90;;;6.75;66.19;99174.50;5060016;28;20021;-82
2022/02/19 00:09:57;;;;;;;14.05;2.28;;;6.30;99.90;;;6.75;68.37;99188.38;5059478;28;20063;-80
2022/02/19 00:12:24;;;;;;;12.82;2.53;;;6.20;99.90;;;6.50;69.76;99189.88;5061332;28;20400;-79
2022/02/19 00:14:52;;;;;;;14.15;3.05;;;6.10;99.90;;;6.59;71.74;99209.84;5042128;28;20473;-79
2022/02/19 00:17:20;;;;;;;11.25;2.03;;;6.00;99.90;;;6.31;72.21;99212.06;5042940;28;20037;-79
2022/02/19 00:19:47;;;;;;;10.90;2.25;;;5.90;99.90;;;6.36;73.12;99206.22;5060354;28;20029;-80
2022/02/19 00:22:13;;;;;;;8.98;1.85;;;5.80;99.90;;;6.43;72.02;99209.13;5042739;28;20021;-78
2022/02/19 00:24:39;;;;;;;11.85;2.35;;;5.80;99.90;;;6.31;72.70;99232.28;5058833;28;20025;-79
2022/02/19 00:27:05;;;;;;;10.38;2.40;;;5.70;99.90;;;6.11;72.77;99225.09;5042109;28;20029;-81
2022/02/19 00:29:37;;;;;;;13.88;2.58;;;5.70;99.90;;;6.10;72.27;99236.56;5060605;28;20519;-80
2022/02/19 00:32:07;;;;;;;12.73;1.98;;;5.60;99.90;;;6.02;72.94;99255.00;5044039;28;20107;-80
2022/02/19 00:34:36;;;;;;;10.18;1.80;;;5.50;99.90;;;6.02;71.62;99235.59;5048558;28;20025;-80
2022/02/19 00:37:03;;;;;;;11.25;2.17;;;5.50;99.90;;;6.06;71.55;99242.03;5062979;28;20033;-80
2022/02/19 00:39:33;;;;;;;9.70;1.92;;;5.50;99.90;;;6.02;71.34;99254.19;5058350;28;20025;-80
2022/02/19 00:42:01;;;;;;;7.45;1.63;;;5.50;99.90;;;5.96;70.23;99253.66;5061078;28;20086;-81
2022/02/19 00:44:28;;;;;;;8.80;1.67;;;5.50;99.90;;;5.97;70.38;99265.56;5042875;28;20044;-80
2022/02/19 00:46:57;;;;;;;15.52;2.80;;;5.50;99.90;;;6.10;69.87;99269.81;5060227;28;20029;-80
2022/02/19 00:49:24;;;;;;;7.28;1.50;;;5.50;99.90;;;6.05;69.99;99283.94;5063659;28;20054;-80
2022/02/19 00:51:51;;;;;;;12.35;1.88;;;5.50;99.90;;;5.93;69.61;99287.66;5079305;28;20028;-80
2022/02/19 00:54:17;;;;;;;10.57;2.25;;;5.50;99.90;;;6.01;69.19;99278.31;5077650;28;20032;-80
2022/02/19 00:56:43;;;;;;;11.90;1.65;;;5.40;99.90;;;5.94;69.17;99297.53;5076860;28;20025;-79
2022/02/19 00:59:09;;;;;;;5.72;1.30;;;5.40;99.90;;;5.87;68.86;99282.75;5077917;28;20056;-80
2022/02/19 01:01:37;;;;;;;10.20;1.88;;;5.40;99.90;;;5.92;68.29;99304.63;5060193;28;20096;-80
2022/02/19 01:04:10;;;;;;;12.05;2.80;;;5.30;99.90;;;5.82;68.81;99309.53;5078801;28;20060;-80
2022/02/19 01:06:36;;;;;;;12.07;1.70;;;5.30;99.90;;;5.94;68.65;99305.09;5078748;28;20048;-79
2022/02/19 01:09:03;;;;;;;10.75;1.73;;;5.40;99.90;;;5.91;68.13;99309.34;5077590;28;20077;-81
2022/02/19 01:11:29;;;;;;;8.35;2.03;;;5.40;99.90;;;5.96;68.55;99294.44;5078137;28;20132;-80
2022/02/19 01:13:55;;;;;;;9.18;2.60;;;5.40;99.90;;;6.07;67.84;99320.44;5079630;28;20059;-80
2022/02/19 01:16:21;;;;;;;12.18;2.10;;;5.50;99.90;;;6.03;67.80;99336.97;5059968;28;20031;-80
2022/02/19 01:18:50;;;;;;;8.90;1.55;;;5.40;99.90;;;6.05;67.83;99339.38;5078814;28;20093;-80
2022/02/19 01:21:18;;;;;;;14.77;2.10;;;5.50;99.90;;;6.03;67.38;99334.22;5079074;28;20488;-81
2022/02/19 01:23:45;;;;;;;10.45;1.65;;;5.40;99.90;;;6.07;67.71;99346.16;5061094;28;20025;-79
2022/02/19 01:26:20;;;;;;;12.65;1.98;;;5.50;99.90;;;6.06;67.36;99330.72;5078238;28;20025;-78
2022/02/19 01:28:46;;;;;;;7.65;2.00;;;5.50;99.90;;;6.06;66.94;99339.03;5060684;28;20033;-79
2022/02/19 01:31:13;;;;;;;15.13;2.30;;;5.60;99.90;;;6.07;65.98;99339.84;5078541;28;20081;-78
2022/02/19 01:33:47;;;;;;;7.30;1.70;;;5.50;99.90;;;6.14;65.93;99331.66;5077318;28;20031;-80
2022/02/19 01:36:16;;;;;;;15.25;2.38;;;5.60;99.90;;;6.10;65.40;99348.22;5077395;28;20033;-78
2022/02/19 01:38:45;;;;;;;14.32;1.90;;;5.50;99.90;;;6.20;64.93;99352.41;5077337;28;20044;-80
2022/02/19 01:41:17;;;;;;;9.45;2.47;;;5.60;99.90;;;6.20;64.91;99375.38;5078599;28;20024;-78
2022/02/19 01:43:43;;;;;;;12.50;1.60;;;5.60;99.90;;;6.16;64.78;99374.53;5060688;28;20024;-79
2022/02/19 01:46:09;;;;;;;11.05;1.85;;;5.60;99.90;;;6.25;65.04;99382.66;5078633;28;20080;-80
2022/02/19 01:48:35;;;;;;;6.13;1.88;;;5.70;99.90;;;6.21;64.50;99390.88;5060624;28;20027;-81
2022/02/19 01:51:00;;;;;;;10.23;1.83;;;5.70;99.90;;;6.24;64.04;99375.47;5041611;28;20064;-79
2022/02/19 01:53:26;;;;;;;10.68;1.67;;;5.70;99.90;;;6.27;64.71;99388.63;5058212;28;20237;-81
2022/02/19 01:55:56;;;;;;;7.18;1.75;;;5.70;99.90;;;6.17;64.34;99372.53;5058569;28;20025;-81
2022/02/19 01:58:24;;;;;;;7.80;1.35;;;5.70;99.90;;;6.23;64.22;99384.94;5057581;28;20029;-80
2022/02/19 02:00:53;;;;;;;9.30;2.10;;;5.60;99.90;;;6.13;64.39;99382.75;5040886;28;20091;-81
2022/02/19 02:03:19;;;;;;;8.88;2.20;;;5.60;99.90;;;6.27;64.58;99406.06;5040560;28;20036;-80
2022/02/19 02:05:47;;;;;;;13.48;2.30;;;5.60;99.90;;;6.29;64.54;99412.03;5039687;28;20029;-77
2022/02/19 02:08:14;;;;;;;10.07;1.48;;;5.60;99.90;;;6.29;64.73;99411.25;5057884;28;20460;-78
2022/02/19 02:10:44;;;;;;;12.63;1.98;;;5.60;99.90;;;6.24;64.97;99406.78;5040776;28;20033;-79
2022/02/19 02:13:13;;;;;;;6.65;1.42;;;5.60;99.90;;;6.28;64.06;99407.69;5057156;28;20041;-81
2022/02/19 02:15:39;;;;;;;8.98;1.98;;;5.60;99.90;;;6.29;64.58;99434.22;5057639;28;20119;-79
2022/02/19 02:18:08;;;;;;;5.65;1.98;;;5.70;99.90;;;6.21;64.81;99421.38;5040720;28;20399;-77
2022/02/19 02:20:34;;;;;;;10.52;1.65;;;5.60;99.90;;;6.18;64.72;99437.91;5058572;28;20392;-81
2022/02/19 02:23:00;;;;;;;8.50;1.70;;;5.70;99.90;;;6.27;64.89;99435.75;5057091;28;20040;-79
2022/02/19 02:25:33;;;;;;;9.60;1.65;;;5.70;99.90;;;6.32;64.87;99443.81;5059142;28;20037;-80
2022/02/19 02:27:59;;;;;;;11.68;2.08;;;5.70;99.90;;;6.37;65.04;99438.00;5056115;28;20033;-78
2022/02/19 02:30:28;;;;;;;13.05;1.83;;;5.70;99.90;;;6.22;65.17;99452.69;5040850;28;20115;-79
2022/02/19 02:32:54;;;;;;;8.68;2.25;;;5.70;99.90;;;6.24;65.26;99440.06;5040190;28;20098;-78
2022/02/19 02:35:20;;;;;;;10.68;2.08;;;5.70;99.90;;;6.36;65.26;99453.00;5040070;28;20086;-79
2022/02/19 02:37:49;;;;;;;11.48;1.98;;;5.70;99.90;;;6.23;65.19;99454.25;5058783;28;20028;-79
2022/02/19 02:40:18;;;;;;;10.77;2.03;;;5.70;99.90;;;6.19;65.27;99459.75;5057832;28;20118;-79
2022/02/19 02:42:46;;;;;;;7.60;1.95;;;5.70;99.90;;;6.38;65.64;99458.22;5056506;28;20484;-78
2022/02/19 02:45:15;;;;;;;9.45;1.80;;;5.70;99.90;;;6.40;64.67;99476.09;5056362;28;20111;-77
2022/02/19 02:47:45;;;;;;;12.20;2.15;;;5.70;99.90;;;6.38;64.99;99485.94;5062222;28;20096;-78
2022/02/19 02:50:12;;;;;;;11.77;2.00;;;5.80;99.90;;;6.34;64.93;99492.22;5058461;28;20037;-80
2022/02/19 02:52:47;;;;;;;9.10;1.90;;;5.70;99.90;;;6.36;65.04;99497.38;5060459;28;20028;-78
2022/02/19 02:55:14;;;;;;;8.88;1.98;;;5.70;99.90;;;6.31;64.62;99497.66;5077781;28;20031;-79
2022/02/19 02:57:41;;;;;;;8.02;1.70;;;5.70;99.90;;;6.35;64.34;99502.16;5077274;28;20472;-78
2022/02/19 03:00:15;;;;;;;11.88;2.50;;;5.70;99.90;;;6.32;64.10;99519.47;5076809;28;20063;-80
2022/02/19 03:02:42;;;;;;;12.88;2.42;;;5.80;99.90;;;6.49;63.59;99511.97;5074015;28;20021;-78
2022/02/19 03:05:13;;;;;;;12.32;1.65;;;5.80;99.90;;;6.45;63.65;99517.44;5057416;28;20021;-78
2022/02/19 03:07:39;;;;;;;13.90;2.30;;;5.80;99.90;;;6.35;63.02;99520.75;5075581;28;20025;-78
2022/02/19 03:10:07;;;;;;;8.98;1.75;;;5.80;99.90;;;6.47;63.90;99530.94;5056433;28;20032;-79
2022/02/19 03:12:37;;;;;;;11.63;2.25;;;5.80;99.90;;;6.44;64.16;99520.56;5074182;28;20035;-78
2022/02/19 03:15:04;;;;;;;13.88;2.80;;;5.70;99.90;;;6.38;64.22;99522.81;5077036;28;20028;-77
2022/02/19 03:17:39;;;;;;;14.15;1.92;;;5.70;99.90;;;6.45;63.42;99544.38;5076179;28;20028;-77
2022/02/19 03:20:08;;;;;;;12.93;1.55;;;5.80;99.90;;;6.38;64.52;99566.38;5077701;28;20424;-79
2022/02/19 03:22:37;;;;;;;8.40;1.95;;;5.70;99.90;;;6.49;64.68;99564.66;5058698;28;20047;-79
2022/02/19 03:25:03;;;;;;;11.48;1.80;;;5.70;99.90;;;6.35;64.96;99573.44;5059198;28;20458;-79
2022/02/19 03:27:29;;;;;;;8.82;1.75;;;5.70;99.90;;;6.21;65.15;99584.13;5059395;28;20035;-80
2022/02/19 03:29:55;;;;;;;9.63;1.58;;;5.70;99.90;;;6.02;67.27;99593.13;5058046;28;20123;-79
2022/02/19 03:32:24;;;;;;;4.75;1.15;;;5.60;99.90;;;5.90;68.61;99595.16;5075839;28;20142;-79
2022/02/19 03:34:50;;;;;;;5.20;1.10;;;5.40;99.90;;;5.65;73.33;99613.78;5075863;28;20024;-78
2022/02/19 03:37:16;;;;;;;9.30;1.50;;;5.20;99.90;;;5.52;78.16;99612.97;5074411;28;20025;-77
2022/02/19 03:39:42;;;;;;;14.70;2.42;;;4.90;99.90;;;5.07;83.02;99604.06;5076279;28;20029;-79
2022/02/19 03:42:09;;;;;;;7.25;2.20;;;4.60;99.90;;;4.93;84.99;99604.41;5074616;28;20103;-77
2022/02/19 03:44:34;;;;;;;9.65;1.80;;;4.40;99.90;;;4.89;85.82;99627.56;5075263;28;20082;-77
2022/02/19 03:47:04;;;;;;;10.25;1.95;;;4.30;99.90;;;4.96;85.14;99630.56;5074423;28;20040;-77
2022/02/19 03:49:30;;;;;;;8.32;1.90;;;4.30;99.90;;;4.91;84.15;99628.06;5067768;28;20484;-77
2022/02/19 03:51:56;;;;;;;11.45;1.88;;;4.30;99.90;;;5.06;82.84;99635.66;5055252;28;20029;-77
2022/02/19 03:54:21;;;;;;;13.38;2.30;;;4.40;99.90;;;5.15;80.17;99644.66;5063589;28;20084;-79
2022/02/19 03:56:50;;;;;;;13.45;2.75;;;4.50;99.90;;;5.15;80.01;99645.47;5040980;28;20064;-78
2022/02/19 03:59:16;;;;;;;10.75;2.03;;;4.50;99.90;;;5.20;78.61;99649.97;5057609;28;20029;-77
2022/02/19 04:01:44;;;;;;;7.70;1.98;;;4.60;99.90;;;5.30;78.09;99647.53;5057693;28;20036;-77
2022/02/19 04:04:10;;;;;;;7.53;1.42;;;4.70;99.90;;;5.39;76.55;99657.69;5059170;28;20068;-79
2022/02/19 04:06:37;;;;;;;9.65;1.65;;;4.70;99.90;;;5.47;75.91;99665.03;5059225;28;20575;-77
2022/02/19 04:09:04;;;;;;;14.27;2.63;;;4.80;99.90;;;5.55;74.78;99664.94;5059863;28;20044;-79
2022/02/19 04:11:30;;;;;;;10.05;2.03;;;4.90;99.90;;;5.51;74.27;99663.19;5058915;28;20028;-78
2022/02/19 04:13:56;;;;;;;7.85;1.75;;;4.90;99.90;;;5.50;73.92;99678.19;5059752;28;20033;-79
2022/02/19 04:16:22;;;;;;;10.25;1.92;;;4.90;99.90;;;5.68;72.08;99669.28;5040421;28;20048;-76
2022/02/19 04:18:51;;;;;;;7.68;1.80;;;5.00;99.90;;;5.70;72.83;99682.78;5058630;28;20131;-78
2022/02/19 04:21:17;;;;;;;10.18;1.88;;;5.00;99.90;;;5.78;72.42;99679.88;5058075;28;20609;-79
2022/02/19 04:23:42;;;;;;;9.18;2.33;;;5.00;99.90;;;5.55;72.19;99681.56;5058016;28;20059;-76
2022/02/19 04:26:17;;;;;;;11.50;1.67;;;5.00;99.90;;;5.60;71.66;99686.03;5057614;28;20029;-77
2022/02/19 04:28:43;;;;;;;5.28;1.55;;;5.00;99.90;;;5.64;72.40;99695.28;5039295;28;20373;-77
2022/02/19 04:31:08;;;;;;;9.73;2.30;;;5.00;99.90;;;5.60;72.12;99691.56;5057680;28;20078;-79
2022/02/19 04:33:34;;;;;;;11.80;1.83;;;5.00;99.90;;;5.64;72.83;99715.47;5059264;28;20083;-79
2022/02/19 04:36:00;;;;;;;9.90;1.60;;;5.00;99.90;;;5.71;70.99;99712.13;5058057;28;20526;-79
2022/02/19 04:38:30;;;;;;;9.27;1.60;;;5.10;99.90;;;5.71;72.00;99712.94;5043216;28;20049;-79
2022/02/19 04:40:59;;;;;;;8.43;2.00;;;5.00;99.90;;;5.60;71.67;99738.66;5061925;28;20056;-79
2022/02/19 04:43:25;;;;;;;14.18;2.10;;;5.00;99.90;;;5.52;72.60;99734.84;5061950;28;20052;-79
2022/02/19 04:45:54;;;;;;;13.60;2.88;;;4.90;99.90;;;5.51;73.17;99744.34;5040892;28;20032;-79
2022/02/19 04:48:21;;;;;;;7.28;1.63;;;4.90;99.90;;;5.52;73.13;99761.75;5040817;28;20032;-80
2022/02/19 04:50:49;;;;;;;9.77;1.95;;;4.90;99.90;;;5.54;73.39;99754.72;5076665;28;20028;-79
2022/02/19 04:53:15;;;;;;;18.52;2.42;;;4.90;99.90;;;5.70;71.27;99763.13;5078381;28;20555;-79
2022/02/19 04:55:41;;;;;;;11.10;1.90;;;5.00;99.90;;;5.71;71.30;99759.22;5079194;28;20149;-79
2022/02/19 04:58:10;;;;;;;15.88;2.75;;;5.10;99.90;;;5.79;70.71;99759.09;5077854;28;20032;-78
2022/02/19 05:00:36;;;;;;;8.15;1.50;;;5.10;99.90;;;5.67;70.37;99769.38;5060450;28;20029;-78
2022/02/19 05:03:03;;;;;;;11.68;2.30;;;5.10;99.90;;;5.71;69.70;99762.00;5078009;28;20031;-79
2022/02/19 05:05:29;;;;;;;9.50;2.05;;;5.10;99.90;;;5.73;69.04;99771.56;5078234;28;20059;-79
2022/02/19 05:07:55;;;;;;;8.00;1.60;;;5.20;99.90;;;5.72;69.53;99783.78;5077537;28;20480;-79
2022/02/19 05:10:23;;;;;;;8.38;1.83;;;5.20;99.90;;;5.91;69.04;99780.44;5077097;28;20036;-79
2022/02/19 05:12:51;;;;;;;14.85;2.15;;;5.30;99.90;;;5.87;69.69;99787.06;5077153;28;20029;-77
2022/02/19 05:15:19;;;;;;;13.70;2.00;;;5.20;99.90;;;5.71;69.27;99801.59;5076489;28;20436;-78
2022/02/19 05:17:53;;;;;;;9.63;1.73;;;5.20;99.90;;;5.86;69.26;99804.84;5060562;28;20043;-79
2022/02/19 05:20:39;;;;;;;10.95;1.73;;;5.20;99.90;;;5.76;70.44;99806.06;5078307;28;20029;-80
2022/02/19 05:23:08;;;;;;;9.90;2.42;;;5.10;99.90;;;5.71;70.35;99809.91;5078655;28;20032;-80
2022/02/19 05:25:43;;;;;;;9.38;1.88;;;5.00;99.90;;;5.57;70.22;99819.69;5079265;28;20397;-79
2022/02/19 05:28:10;;;;;;;9.68;1.70;;;5.00;99.90;;;5.63;70.37;99821.06;5059801;28;20031;-79
2022/02/19 05:30:37;;;;;;;22.00;3.88;;;5.00;99.90;;;5.56;70.50;99827.19;5077084;28;20080;-77
2022/02/19 05:33:04;;;;;;;8.77;1.60;;;5.00;99.90;;;5.58;70.93;99826.84;5078143;28;20543;-78
2022/02/19 05:35:33;;;;;;;8.05;1.98;;;5.00;99.90;;;5.55;71.00;99839.44;5077954;28;20054;-76
2022/02/19 05:37:59;;;;;;;12.10;2.47;;;4.90;99.90;;;5.55;71.66;99847.75;5077353;28;20533;-77
2022/02/19 05:40:26;;;;;;;10.90;1.85;;;4.90;99.90;;;5.72;72.46;99855.81;5077651;28;20032;-77
2022/02/19 05:42:52;;;;;;;13.32;2.42;;;4.90;99.90;;;5.62;74.14;99861.81;5076923;28;20055;-77
2022/02/19 05:45:18;;;;;;;13.07;2.60;;;4.90;99.90;;;5.37;76.31;99871.22;5077469;28;20040;-78
2022/02/19 05:47:44;;;;;;;19.15;3.15;;;4.80;99.90;;;5.44;76.84;99882.56;5077304;28;20421;-76
2022/02/19 05:50:11;;;;;;;12.45;1.92;;;4.80;99.90;;;5.38;77.75;99869.28;5062419;28;20032;-77
2022/02/19 05:52:37;;;;;;;14.07;3.30;;;4.70;99.90;;;5.33;77.68;99867.50;5056863;28;20033;-77
2022/02/19 05:55:04;;;;;;;10.32;2.42;;;4.60;99.90;;;5.10;79.12;99875.44;5060016;28;20492;-78
2022/02/19 05:57:41;;;;;;;12.70;2.85;;;4.60;99.90;;;5.09;79.67;99876.56;5054682;28;20041;-77
2022/02/19 06:00:10;;;;;;;10.20;1.92;;;4.50;99.90;;;5.10;79.43;99878.19;5055708;28;20037;-78
2022/02/19 06:02:36;;;;;;;11.88;2.35;;;4.40;99.90;;;5.04;78.96;99865.69;5058914;28;20491;-77
2022/02/19 06:05:03;;;;;;;14.07;2.60;;;4.50;99.90;;;5.03;77.85;99871.59;5067732;28;20026;-79
2022/02/19 06:07:31;;;;;;;11.40;1.77;;;4.50;99.90;;;4.91;77.96;99872.34;5061257;28;20025;-79
2022/02/19 06:09:57;;;;;;;9.07;1.73;;;4.40;99.90;;;4.88;78.44;99881.31;5041752;28;20421;-78
2022/02/19 06:12:23;;;;;;;12.65;2.45;;;4.30;99.90;;;4.81;78.38;99888.53;5057010;28;20067;-78
2022/02/19 06:14:48;;;;;;;11.00;2.05;;;4.30;99.90;;;4.71;78.62;99896.09;5058687;28;20077;-79
2022/02/19 06:17:17;;;;;;;5.80;1.92;;;4.20;99.90;;;4.83;78.16;99889.81;5040378;28;20060;-77
2022/02/19 06:19:46;;;;;;;12.50;2.00;;;4.20;99.90;;;4.74;78.60;99908.44;5058651;28;20116;-78
2022/02/19 06:22:15;;;;;;;10.00;2.15;;;4.20;99.90;;;4.88;78.35;99910.94;5058317;28;20027;-79
2022/02/19 06:24:44;;;;;;;8.60;1.48;;;4.20;99.90;;;4.86;78.35;99905.75;5058899;28;20090;-80
2022/02/19 06:27:20;;;;;;;10.48;1.88;;;4.20;99.90;;;4.83;78.74;99925.78;5042376;28;20031;-81
2022/02/19 06:29:48;;;;;;;7.82;1.85;;;4.30;99.90;;;4.98;78.23;99927.94;5058874;28;20091;-78
2022/02/19 06:32:20;;;;;;;7.43;1.52;;;4.30;99.90;;;4.98;78.52;99949.25;5042177;28;20029;-78
2022/02/19 06:34:52;;;;;;;9.70;1.40;;;4.40;99.90;;;4.95;78.24;99944.41;5040716;28;20147;-81
2022/02/19 06:37:21;;;;;;;9.23;1.88;;;4.30;99.90;;;5.01;78.26;99943.09;5057208;28;20033;-81
2022/02/19 06:39:47;;;;;;;10.90;1.77;;;4.30;99.90;;;5.05;77.39;99950.34;5040884;28;20033;-78
2022/02/19 06:42:13;;;;;;;7.38;1.83;;;4.40;99.90;;;5.03;77.56;99949.88;5058273;28;20106;-79
2022/02/19 06:44:41;;;;;;;6.72;2.05;;;4.40;99.90;;;5.00;76.77;99958.06;5041576;28;20113;-79
2022/02/19 06:47:07;;;;;;;10.90;2.08;;;4.50;99.90;;;5.10;76.94;99985.34;5040846;28;20033;-78
2022/02/19 06:49:33;;;;;;;16.55;2.47;;;4.50;99.90;;;5.05;76.69;99983.56;5045826;28;20502;-80
2022/02/19 06:51:59;;;;;;;10.40;2.08;;;4.50;99.90;;;5.13;77.49;99984.66;5060738;28;20104;-79
2022/02/19 06:54:28;;;;;;;14.00;2.15;;;4.50;99.90;;;5.20;77.48;99984.94;5078300;28;20028;-78
2022/02/19 06:56:55;;;;;;;10.73;2.58;;;4.60;99.90;;;5.22;76.94;99990.91;5077015;28;20119;-77
2022/02/19 06:59:21;;;;;;;14.82;2.45;;;4.60;99.90;;;5.21;77.69;99989.28;5060764;28;20028;-77
2022/02/19 07:01:50;;;;;;;10.70;2.15;;;4.60;99.90;;;5.30;77.05;100012.19;5058717;28;20039;-78
2022/02/19 07:04:16;;;;;;;5.75;1.83;;;4.50;99.90;;;5.07;77.92;100022.00;5077347;28;20084;-77
2022/02/19 07:06:42;;;;;;;9.77;1.90;;;4.50;99.90;;;5.05;78.63;100022.31;5062030;28;20029;-78
2022/02/19 07:09:08;;;;;;;9.20;2.03;;;4.40;99.90;;;5.12;78.47;100025.34;5060757;28;20038;-80
2022/02/19 07:11:34;;;;;;;13.57;2.42;;;4.50;99.90;;;5.07;77.95;100022.78;5060994;28;20029;-79
2022/02/19 07:14:04;;;;;;;16.88;2.42;;;4.40;99.90;;;5.03;78.28;100027.38;5079030;28;20043;-79
2022/02/19 07:16:30;;;;;;;9.02;1.73;;;4.40;99.90;;;5.04;77.49;100028.97;5076687;28;20028;-77
2022/02/19 07:18:56;;;;;;;11.55;2.00;;;4.50;99.90;;;5.26;77.45;100041.72;5059726;28;20395;-79
2022/02/19 07:21:22;;;;;;;6.70;1.70;;;4.50;99.90;;;5.31;77.05;100044.25;5059184;28;20420;-79
2022/02/19 07:23:48;;;;;;;9.32;1.83;;;4.50;99.90;;;5.21;76.90;100053.78;5079820;28;20033;-79
2022/02/19 07:26:14;;;;;;;10.10;1.75;;;4.50;99.90;;;5.17;76.59;100054.81;5063706;28;20029;-78
2022/02/19 07:28:40;;;;;;;10.35;1.83;;;4.50;99.90;;;5.08;75.85;100046.53;5092559;28;20033;-78
2022/02/19 07:31:05;;;;;;;13.50;3.05;;;4.50;99.90;;;5.13;75.40;100060.22;5094012;28;20039;-79
2022/02/19 07:33:31;;;;;;;12.23;1.90;;;4.60;99.90;;;5.21;75.61;100066.81;5063770;28;20487;-79
2022/02/19 07:35:57;;;;;;;11.80;1.92;;;4.60;99.90;;;5.28;74.64;100083.72;5067397;28;20119;-78
2022/02/19 07:38:23;;;;;;;15.32;2.10;;;4.60;99.90;;;5.28;74.07;100078.97;5087036;28;20039;-78
2022/02/19 07:40:49;;;;;;;9.45;1.98;;;4.70;99.90;;;5.25;74.36;100068.59;5088293;28;20032;-81
2022/02/19 07:43:18;;;;;;;6.53;1.70;;;4.70;99.90;;;5.44;73.57;100084.72;5087800;28;20041;-80
2022/02/19 07:45:47;;;;;;;7.88;1.70;;;4.80;99.90;;;5.47;73.56;100092.34;5084683;28;20027;-79
2022/02/19 07:48:14;;;;;;;6.05;2.00;;;4.80;99.90;;;5.61;72.18;100111.50;5081546;28;20104;-76
2022/02/19 07:58:57;;;;;;;6.68;1.65;;;5.00;99.90;;;5.75;71.75;100117.53;5065566;28;20047;-80
2022/02/19 08:01:23;;;;;;;8.15;1.67;;;5.10;99.90;;;5.78;72.03;100114.09;5066392;28;20053;-79
2022/02/19 08:03:52;;;;;;;15.05;2.33;;;5.10;99.90;;;5.73;71.45;100126.22;5066756;28;20021;-80
2022/02/19 08:06:18;;;;;;;7.90;2.42;;;5.10;99.90;;;5.78;71.14;100126.00;5048440;28;20555;-78
2022/02/19 08:08:44;;;;;;;8.50;1.80;;;5.20;99.90;;;6.30;71.06;100136.63;5047386;28;20025;-80
2022/02/19 08:11:17;;;;;;;12.65;1.90;;;5.50;99.90;;;6.52;69.10;100136.22;5062618;28;20036;-80
2022/02/19 08:13:46;;;;;;;9.20;2.03;;;5.80;99.90;;;6.42;68.45;100142.25;5064855;28;20029;-83
2022/02/19 08:16:13;;;;;;;11.65;2.10;;;5.80;99.90;;;6.17;69.28;100155.19;5052024;28;20044;-82
2022/02/19 08:18:39;;;;;;;9.10;1.88;;;5.60;99.90;;;5.99;70.76;100152.94;5067393;28;20035;-79
2022/02/19 08:21:08;;;;;;;11.90;2.03;;;5.50;99.90;;;5.92;71.45;100158.19;5065872;28;20112;-79
2022/02/19 08:23:34;;;;;;;10.85;1.95;;;5.40;99.90;;;5.83;70.58;100167.38;5063879;28;20079;-81
2022/02/19 08:26:03;;;;;;;9.45;2.60;;;5.30;99.90;;;6.14;70.23;100171.69;5045539;28;20356;-80
2022/02/19 08:28:29;;;;;;;14.35;2.38;;;5.30;99.90;;;5.97;70.43;100174.63;5062449;28;20033;-81
2022/02/19 08:30:55;;;;;;;11.27;2.05;;;5.40;99.90;;;6.14;70.36;100180.84;5063953;28;20033;-82
2022/02/19 08:33:21;;;;;;;12.32;2.28;;;5.40;99.90;;;6.10;69.96;100187.41;5048925;28;20033;-79
2022/02/19 08:35:50;;;;;;;9.27;1.73;;;5.40;99.90;;;6.25;69.78;100187.59;5049468;28;20037;-82
2022/02/19 08:38:17;;;;;;;9.35;1.55;;;5.40;99.90;;;6.06;70.46;100200.31;5047519;28;20128;-82
2022/02/19 08:40:43;;;;;;;13.18;2.55;;;5.40;99.90;;;6.18;69.82;100197.59;5068247;28;20029;-80
2022/02/19 08:43:19;;;;;;;10.65;2.25;;;5.40;99.90;;;6.05;71.61;100207.81;5070841;28;20032;-81
2022/02/19 08:45:46;;;;;;;9.93;2.35;;;5.40;99.90;;;5.96;71.03;100193.22;5066790;28;20037;-82
2022/02/19 08:48:18;;;;;;;9.13;2.38;;;5.40;99.90;;;6.25;70.95;100208.97;5066199;28;20028;-82
2022/02/19 08:50:47;;;;;;;10.73;1.73;;;5.50;99.90;;;6.24;70.87;100210.09;5062120;28;20384;-83
2022/02/19 08:53:14;;;;;;;7.38;2.00;;;5.60;99.90;;;6.36;69.64;100208.19;5080822;28;20028;-83
2022/02/19 08:55:43;;;;;;;5.93;1.83;;;5.60;99.90;;;6.49;68.90;100213.78;5066100;28;20024;-82
2022/02/19 08:58:12;;;;;;;9.60;2.00;;;5.70;99.90;;;6.39;69.74;100217.00;5066187;28;20035;-81
2022/02/19 09:00:37;;;;;;;10.23;2.13;;;5.70;99.90;;;6.58;67.72;100217.31;5083466;28;20115;-83
2022/02/19 09:03:03;;;;;;;9.55;2.33;;;5.70;99.90;;;6.61;68.38;100220.22;5082508;28;20135;-81
2022/02/19 09:05:30;;;;;;;8.82;2.15;;;5.80;99.90;;;6.87;67.66;100214.38;5083656;28;20037;-81
2022/02/19 09:07:56;;;;;;;5.38;1.90;;;6.00;99.90;;;7.21;66.38;100232.59;5067827;28;20029;-80
2022/02/19 09:10:22;;;;;;;8.15;2.05;;;6.50;99.90;;;7.51;63.94;100222.88;5066167;28;20052;-81
2022/02/19 09:12:49;;;;;;;15.35;1.90;;;6.80;99.90;;;7.39;64.80;100222.88;5081809;28;20033;-83
2022/02/19 09:15:26;;;;;;;10.23;2.55;;;6.70;99.90;;;7.55;64.91;100232.13;5062338;28;20043;-81
2022/02/19 09:17:53;;;;;;;11.93;1.98;;;6.80;99.90;;;7.79;64.27;100234.09;5069718;28;20032;-82
2022/02/19 09:20:21;;;;;;;8.57;1.77;;;7.00;99.90;;;8.06;63.79;100236.09;5083050;28;20093;-83
2022/02/19 09:22:49;;;;;;;10.40;1.85;;;7.20;99.90;;;7.74;63.42;100237.09;5069645;28;20024;-83
2022/02/19 09:25:15;;;;;;;15.60;2.03;;;7.20;99.90;;;8.35;62.49;100246.13;5083103;28;20029;-83
2022/02/19 09:27:42;;;;;;;9.73;2.15;;;7.50;99.90;;;8.45;61.03;100252.03;5080506;28;20025;-83
2022/02/19 09:30:11;;;;;;;18.55;2.92;;;7.70;99.90;;;8.59;60.37;100245.25;5065373;28;20111;-83
2022/02/19 09:32:39;;;;;;;21.10;2.63;;;8.00;99.90;;;8.99;59.76;100262.66;5084122;28;20083;-80
2022/02/19 09:35:09;;;;;;;10.13;1.70;;;8.00;99.90;;;8.35;61.07;100260.06;5067331;28;20025;-82
2022/02/19 09:37:39;;;;;;;14.00;2.60;;;7.80;99.90;;;8.15;61.72;100255.47;5065518;28;20469;-83
2022/02/19 09:40:11;;;;;;;11.45;2.58;;;7.50;99.90;;;7.93;62.40;100262.31;5082669;28;20024;-83
2022/02/19 09:42:39;;;;;;;12.57;2.05;;;7.30;99.90;;;7.86;62.92;100260.16;5065686;28;20057;-81
2022/02/19 09:45:09;;;;;;;9.95;2.00;;;7.20;99.90;;;7.82;63.53;100267.56;5081534;28;20048;-80
2022/02/19 09:47:37;;;;;;;9.25;2.33;;;7.10;99.90;;;7.56;63.84;100257.94;5066049;28;20116;-81
2022/02/19 09:50:04;;;;;;;9.43;1.75;;;7.00;99.90;;;8.04;63.75;100266.25;5053464;28;20036;-83
2022/02/19 09:52:30;;;;;;;6.53;1.70;;;7.20;99.90;;;8.58;62.08;100269.50;5062899;28;20033;-83
2022/02/19 09:54:59;;;;;;;14.20;2.38;;;7.60;99.90;;;8.72;61.38;100261.56;5044866;28;20028;-82
2022/02/19 09:57:37;;;;;;;7.47;2.45;;;7.90;99.90;;;8.84;59.98;100280.16;5043517;28;20053;-81
2022/02/19 10:00:34;;;;;;;5.80;1.30;;;8.00;99.90;;;8.65;59.95;100269.69;5042833;28;20049;-84
2022/02/19 10:03:03;;;;;;;7.88;2.53;;;7.90;99.90;;;8.41;61.04;100262.22;5066475;28;20097;-81
2022/02/19 10:05:34;;;;;;;15.00;2.13;;;7.80;99.90;;;8.29;61.13;100270.63;5064029;28;20036;-81
2022/02/19 10:08:06;;;;;;;11.13;2.28;;;7.70;99.90;;;7.95;61.86;100271.13;5041763;28;20638;-82
2022/02/19 10:10:37;;;;;;;9.13;2.03;;;7.50;99.90;;;8.03;62.69;100264.63;5062310;28;20488;-83
2022/02/19 10:13:03;;;;;;;7.10;2.28;;;7.30;99.90;;;7.72;62.73;100268.03;5061282;28;20021;-84
2022/02/19 10:15:53;;;;;;;9.55;2.15;;;7.10;99.90;;;7.57;63.84;100263.19;5047648;28;20033;-84
2022/02/19 10:18:48;;;;;;;9.40;2.15;;;6.90;99.90;;;7.72;63.82;100265.25;5056207;28;20039;-85
2022/02/19 10:21:26;;;;;;;12.23;1.98;;;7.10;99.90;;;7.79;62.46;100265.47;5064801;28;20025;-83
2022/02/19 10:23:56;;;;;;;9.77;1.80;;;7.10;99.90;;;8.31;60.27;100275.84;5063345;28;20052;-83
2022/02/19 10:26:31;;;;;;;10.75;2.05;;;7.50;99.90;;;8.93;59.24;100286.38;5059477;23;20063;-76
2022/02/19 10:29:08;;;;;;;10.98;1.95;;;7.90;99.90;;;8.50;58.55;100287.16;5012392;28;20357;-76
2022/02/19 10:31:35;;;;;;;7.28;2.00;;;7.90;99.90;;;8.26;59.94;100282.44;4995645;28;20061;-75
2022/02/19 10:34:14;;;;;;;8.55;1.90;;;7.70;99.90;;;8.22;58.61;100281.50;4995181;28;20037;-76
2022/02/19 10:36:54;;;;;;;9.85;1.65;;;7.60;99.90;;;7.94;59.15;100284.22;4995425;28;20034;-78
2022/02/19 10:39:40;;;;;;;12.00;1.75;;;7.30;99.90;;;7.66;60.18;100283.31;4995538;28;20361;-76